Op dit moment wordt er hard gewerkt aan deze versie van Weerstation-Wijk.nl
Het kan zijn dat er dingen nog niet helemaal kloppen of goed werken.

Weerstation-Wijk.nl. Voor het weer van Wijk bij Duurstede en omstreken



Webcam Weerstation-Wijk Meer informatie Webcam Weerstation-Wijk


Bezoek ook deze websites:

Template documentation
and downloads

And another site



METAR rapporten vliegvelden

   
EHVK - Volkel Rnlafb, Netherlands
Afstand tot: ZW 18 km
Gewijzigd: Jun 19 2021 11:25 pm
Grotendeels bewolkt  
Grotendeels bewolkt  
   Wind: NO 16.7 km/h
Wind: NO 16.7 km/h
Temperatuur: 19°C
Dauwpunt: 16°C
Vochtigheid: 83%
Barometer: 1008 hPa
Bewolking: Grotendeels bewolkt
Zicht: meer dan 10 km
Bewolking: Grotendeels bewolkt 7900 ft,
Grotendeels bewolkt 8500 ft,
Grotendeels bewolkt 9300 ft
EHVK 192125Z AUTO 05009KT 360V070 9999 BKN079 BKN085 BKN093 19/16 Q1008 BLU
EDLV - Niederrhein, Germany
Afstand tot: ZO 25 km
Gewijzigd: Jun 19 2021 11:20 pm
Helder  
Helder  
   Wind: NNO 11.1 km/h
Wind: NNO 11.1 km/h
Temperatuur: 21°C
Dauwpunt: 17°C
Vochtigheid: 78%
Barometer: 1009 hPa
Zicht: meer dan 10 km
Bewolking: Helder
EDLV 192120Z 03006KT 280V060 CAVOK 21/17 Q1009
EHDL - Deelen Rnlafb, Netherlands
Afstand tot: N 35 km
Gewijzigd: Jun 19 2021 11:25 pm
Bewolking  
Bewolking  
   Wind: NO 16.7 km/h
Wind: NO 16.7 km/h
Temperatuur: 17°C
Dauwpunt: 15°C
Vochtigheid: 88%
Barometer: 1010 hPa
Bewolking: Bewolking
Zicht: meer dan 10 km
Bewolking: Grotendeels bewolkt 7000 ft,
Bewolking 7700 ft
EHDL 192125Z AUTO 04009KT 320V120 9999 BKN070 OVC077 17/15 Q1010 BLU
EHEH - Eindhoven Rnlafb, Netherlands
Afstand tot: ZW 48 km
Gewijzigd: Jun 19 2021 11:30 pm
Lichte (mot)regen, Onweer, Bewolking  
Lichte (mot)regen, Onweer, Bewolking  
   Wind: NO 18.5 km/h
Wind: NO 18.5 km/h
Temperatuur: 20°C
Dauwpunt: 17°C
Vochtigheid: 83%
Barometer: 1008 hPa
Bewolking: Bewolking
Zicht: meer dan 10 km
Bewolking: Gedeeltelijk bewolkt 9500 ft,
Bewolking 10000 ft
EHEH 192130Z AUTO 05010KT 010V090 9999 -DZ TS SCT095 OVC100 20/17 Q1008 BLU
EHGR - Gilze-Rijen Rnla, Netherlands
Afstand tot: WZW 70 km
Gewijzigd: Jun 19 2021 11:25 pm
Light Thunderstorm, Regen, Bewolking  
Light Thunderstorm, Regen, Bewolking  
   Wind: Noorden 13 km/h
Wind: Noorden 13 km/h
Temperatuur: 18°C
Dauwpunt: 16°C
Vochtigheid: 88%
Barometer: 1009 hPa
Bewolking: Bewolking
Zicht: 9 km
Bewolking: Gedeeltelijk bewolkt 1500 ft,
Bewolking 6400 ft
EHGR 192125Z AUTO 36007KT 300V050 9000 -TSRA SCT015CB OVC064 18/16 Q1009 WHT
EBBL - Kleine-Brogel(Ba, Belgium
Afstand tot: ZZW 71 km
Gewijzigd: Jun 19 2021 11:20 pm
Regen, Bewolking  
Regen, Bewolking  
   Wind: varieert 1.9 km/h
Wind: varieert 1.9 km/h
Temperatuur: 18°C
Dauwpunt: 18°C
Vochtigheid: 100%
Barometer: 1009 hPa
Bewolking: Bewolking
Zicht: 3 km
Bewolking: Grotendeels bewolkt 2500 ft,
Bewolking 11000 ft
EBBL 192120Z AUTO VRB01KT 3400 RA BKN025/// OVC110/// 18/18 Q1009 YLO

Script ontwikkeld door  Saratoga-weather.org Aangepast voor de template door  Weerstation Leuven

U vindt ons ook hier:

UK Metoffice

WeatherCloud

AWEKAS

Apparatuur in gebruik:

Weerstation
Davis VP2

Weerprogramma
Weather Display

Webleverancier
WebReus.nl

Davis VP2

Weather Display

WebReus.nl


Weerstation-Wijk.nl. Voor het weer van Wijk bij Duurstede en omstreken